sensor_id;sensor_type;location;lat;lon;timestamp;temperature;humidity
54260;DHT22;40172;53.022;7.012;2023-07-31T00:00:10;15.60;99.90
54260;DHT22;40172;53.022;7.012;2023-07-31T00:02:36;15.60;99.90
54260;DHT22;40172;53.022;7.012;2023-07-31T00:05:02;15.60;99.90
54260;DHT22;40172;53.022;7.012;2023-07-31T00:07:28;15.50;99.90
54260;DHT22;40172;53.022;7.012;2023-07-31T00:09:53;15.50;99.90
54260;DHT22;40172;53.022;7.012;2023-07-31T00:12:20;15.40;99.90
54260;DHT22;40172;53.022;7.012;2023-07-31T00:14:45;15.40;99.90
54260;DHT22;40172;53.022;7.012;2023-07-31T00:17:11;15.40;99.90
54260;DHT22;40172;53.022;7.012;2023-07-31T00:19:37;15.40;99.90
54260;DHT22;40172;53.022;7.012;2023-07-31T00:22:02;15.30;99.90
54260;DHT22;40172;53.022;7.012;2023-07-31T00:24:28;15.30;99.90
54260;DHT22;40172;53.022;7.012;2023-07-31T00:26:54;15.20;99.90
54260;DHT22;40172;53.022;7.012;2023-07-31T00:29:19;15.20;99.90
54260;DHT22;40172;53.022;7.012;2023-07-31T00:31:45;15.20;99.90
54260;DHT22;40172;53.022;7.012;2023-07-31T00:34:10;15.10;99.90
54260;DHT22;40172;53.022;7.012;2023-07-31T00:36:36;15.10;99.90
54260;DHT22;40172;53.022;7.012;2023-07-31T00:39:02;15.10;99.90
54260;DHT22;40172;53.022;7.012;2023-07-31T00:41:27;15.10;99.90
54260;DHT22;40172;53.022;7.012;2023-07-31T00:43:53;15.10;99.90
54260;DHT22;40172;53.022;7.012;2023-07-31T00:46:19;15.00;99.90
54260;DHT22;40172;53.022;7.012;2023-07-31T00:48:45;15.00;99.90
54260;DHT22;40172;53.022;7.012;2023-07-31T00:51:11;15.00;99.90
54260;DHT22;40172;53.022;7.012;2023-07-31T00:53:36;15.00;99.90
54260;DHT22;40172;53.022;7.012;2023-07-31T00:56:03;15.00;99.90
54260;DHT22;40172;53.022;7.012;2023-07-31T00:58:29;15.00;99.90
54260;DHT22;40172;53.022;7.012;2023-07-31T01:00:55;15.00;99.90
54260;DHT22;40172;53.022;7.012;2023-07-31T01:03:20;15.00;99.90
54260;DHT22;40172;53.022;7.012;2023-07-31T01:06:14;15.00;99.90
54260;DHT22;40172;53.022;7.012;2023-07-31T01:08:48;15.00;99.90
54260;DHT22;40172;53.022;7.012;2023-07-31T01:11:22;15.00;99.90
54260;DHT22;40172;53.022;7.012;2023-07-31T01:13:51;15.00;99.90
54260;DHT22;40172;53.022;7.012;2023-07-31T01:16:17;15.00;99.90
54260;DHT22;40172;53.022;7.012;2023-07-31T01:18:42;15.00;99.90
54260;DHT22;40172;53.022;7.012;2023-07-31T01:21:52;15.00;99.90
54260;DHT22;40172;53.022;7.012;2023-07-31T01:27:15;15.00;99.90
54260;DHT22;40172;53.022;7.012;2023-07-31T01:29:49;14.90;99.90
54260;DHT22;40172;53.022;7.012;2023-07-31T01:32:18;14.90;99.90
54260;DHT22;40172;53.022;7.012;2023-07-31T01:34:45;15.00;99.90
54260;DHT22;40172;53.022;7.012;2023-07-31T01:37:12;15.00;99.90
54260;DHT22;40172;53.022;7.012;2023-07-31T01:39:37;14.90;99.90
54260;DHT22;40172;53.022;7.012;2023-07-31T01:42:03;14.90;99.90
54260;DHT22;40172;53.022;7.012;2023-07-31T01:44:28;15.00;99.90
54260;DHT22;40172;53.022;7.012;2023-07-31T01:46:54;15.00;99.90
54260;DHT22;40172;53.022;7.012;2023-07-31T01:49:20;14.90;99.90
54260;DHT22;40172;53.022;7.012;2023-07-31T01:51:45;14.90;99.90
54260;DHT22;40172;53.022;7.012;2023-07-31T01:54:11;14.90;99.90
54260;DHT22;40172;53.022;7.012;2023-07-31T01:56:36;14.90;99.90
54260;DHT22;40172;53.022;7.012;2023-07-31T01:59:02;14.90;99.90
54260;DHT22;40172;53.022;7.012;2023-07-31T02:01:28;14.90;99.90
54260;DHT22;40172;53.022;7.012;2023-07-31T02:03:53;14.90;99.90
54260;DHT22;40172;53.022;7.012;2023-07-31T02:06:19;14.90;99.90
54260;DHT22;40172;53.022;7.012;2023-07-31T02:08:45;14.90;99.90
54260;DHT22;40172;53.022;7.012;2023-07-31T02:11:10;14.90;99.90
54260;DHT22;40172;53.022;7.012;2023-07-31T02:13:36;14.90;99.90
54260;DHT22;40172;53.022;7.012;2023-07-31T02:16:01;14.90;99.90
54260;DHT22;40172;53.022;7.012;2023-07-31T02:18:27;14.90;99.90
54260;DHT22;40172;53.022;7.012;2023-07-31T02:20:53;14.90;99.90
54260;DHT22;40172;53.022;7.012;2023-07-31T02:23:19;14.90;99.90
54260;DHT22;40172;53.022;7.012;2023-07-31T02:25:45;14.90;99.90
54260;DHT22;40172;53.022;7.012;2023-07-31T02:28:11;14.90;99.90
54260;DHT22;40172;53.022;7.012;2023-07-31T02:30:37;14.90;99.90
54260;DHT22;40172;53.022;7.012;2023-07-31T02:33:04;14.90;99.90
54260;DHT22;40172;53.022;7.012;2023-07-31T02:35:30;14.90;99.90
54260;DHT22;40172;53.022;7.012;2023-07-31T02:37:55;14.90;99.90
54260;DHT22;40172;53.022;7.012;2023-07-31T02:40:21;14.90;99.90
54260;DHT22;40172;53.022;7.012;2023-07-31T02:42:47;14.90;99.90
54260;DHT22;40172;53.022;7.012;2023-07-31T02:45:12;14.90;99.90
54260;DHT22;40172;53.022;7.012;2023-07-31T02:47:38;14.90;99.90
54260;DHT22;40172;53.022;7.012;2023-07-31T02:50:04;14.90;99.90
54260;DHT22;40172;53.022;7.012;2023-07-31T02:52:30;14.90;99.90
54260;DHT22;40172;53.022;7.012;2023-07-31T02:54:55;14.90;99.90
54260;DHT22;40172;53.022;7.012;2023-07-31T02:57:21;14.90;99.90
54260;DHT22;40172;53.022;7.012;2023-07-31T02:59:46;14.90;99.90
54260;DHT22;40172;53.022;7.012;2023-07-31T03:02:12;14.90;99.90
54260;DHT22;40172;53.022;7.012;2023-07-31T03:04:38;15.00;99.90
54260;DHT22;40172;53.022;7.012;2023-07-31T03:07:04;14.90;99.90
54260;DHT22;40172;53.022;7.012;2023-07-31T03:09:30;14.90;99.90
54260;DHT22;40172;53.022;7.012;2023-07-31T03:11:56;14.90;99.90
54260;DHT22;40172;53.022;7.012;2023-07-31T03:14:21;15.00;99.90
54260;DHT22;40172;53.022;7.012;2023-07-31T03:16:47;15.00;99.90
54260;DHT22;40172;53.022;7.012;2023-07-31T03:19:13;15.00;99.90
54260;DHT22;40172;53.022;7.012;2023-07-31T03:21:38;15.00;99.90
54260;DHT22;40172;53.022;7.012;2023-07-31T03:24:04;15.00;99.90
54260;DHT22;40172;53.022;7.012;2023-07-31T03:26:31;15.00;99.90
54260;DHT22;40172;53.022;7.012;2023-07-31T03:28:57;15.00;99.90
54260;DHT22;40172;53.022;7.012;2023-07-31T03:31:22;15.00;99.90
54260;DHT22;40172;53.022;7.012;2023-07-31T03:33:48;15.00;99.90
54260;DHT22;40172;53.022;7.012;2023-07-31T03:36:13;15.00;99.90
54260;DHT22;40172;53.022;7.012;2023-07-31T03:38:39;15.10;99.90
54260;DHT22;40172;53.022;7.012;2023-07-31T03:41:04;15.10;99.90
54260;DHT22;40172;53.022;7.012;2023-07-31T03:43:32;15.10;99.90
54260;DHT22;40172;53.022;7.012;2023-07-31T03:45:59;15.10;99.90
54260;DHT22;40172;53.022;7.012;2023-07-31T03:48:25;15.10;99.90
54260;DHT22;40172;53.022;7.012;2023-07-31T03:50:51;15.10;99.90
54260;DHT22;40172;53.022;7.012;2023-07-31T03:53:17;15.10;99.90
54260;DHT22;40172;53.022;7.012;2023-07-31T03:55:42;15.10;99.90
54260;DHT22;40172;53.022;7.012;2023-07-31T03:58:08;15.10;99.90
54260;DHT22;40172;53.022;7.012;2023-07-31T04:00:33;15.20;99.90
54260;DHT22;40172;53.022;7.012;2023-07-31T04:02:59;15.20;99.90
54260;DHT22;40172;53.022;7.012;2023-07-31T04:05:24;15.20;99.90
54260;DHT22;40172;53.022;7.012;2023-07-31T04:07:50;15.20;99.90
54260;DHT22;40172;53.022;7.012;2023-07-31T04:10:15;15.20;99.90
54260;DHT22;40172;53.022;7.012;2023-07-31T04:12:41;15.20;99.90
54260;DHT22;40172;53.022;7.012;2023-07-31T04:15:07;15.20;99.90
54260;DHT22;40172;53.022;7.012;2023-07-31T04:17:32;15.20;99.90
54260;DHT22;40172;53.022;7.012;2023-07-31T04:19:58;15.20;99.90
54260;DHT22;40172;53.022;7.012;2023-07-31T04:22:24;15.20;99.90
54260;DHT22;40172;53.022;7.012;2023-07-31T04:24:49;15.30;99.90
54260;DHT22;40172;53.022;7.012;2023-07-31T04:27:15;15.30;99.90
54260;DHT22;40172;53.022;7.012;2023-07-31T04:29:40;15.30;99.90
54260;DHT22;40172;53.022;7.012;2023-07-31T04:32:08;15.30;99.90
54260;DHT22;40172;53.022;7.012;2023-07-31T04:34:33;15.40;99.90
54260;DHT22;40172;53.022;7.012;2023-07-31T04:36:59;15.40;99.90
54260;DHT22;40172;53.022;7.012;2023-07-31T04:39:24;15.40;99.90
54260;DHT22;40172;53.022;7.012;2023-07-31T04:41:50;15.50;99.90
54260;DHT22;40172;53.022;7.012;2023-07-31T04:44:15;15.50;99.90
54260;DHT22;40172;53.022;7.012;2023-07-31T04:46:41;15.50;99.90
54260;DHT22;40172;53.022;7.012;2023-07-31T04:49:06;15.50;99.90
54260;DHT22;40172;53.022;7.012;2023-07-31T04:51:32;15.50;99.90
54260;DHT22;40172;53.022;7.012;2023-07-31T04:53:58;15.50;99.90
54260;DHT22;40172;53.022;7.012;2023-07-31T04:56:23;15.60;99.90
54260;DHT22;40172;53.022;7.012;2023-07-31T04:58:49;15.50;99.90
54260;DHT22;40172;53.022;7.012;2023-07-31T05:01:14;15.60;99.90
54260;DHT22;40172;53.022;7.012;2023-07-31T05:03:40;15.60;99.90
54260;DHT22;40172;53.022;7.012;2023-07-31T05:06:06;15.60;99.90
54260;DHT22;40172;53.022;7.012;2023-07-31T05:08:31;15.70;99.90
54260;DHT22;40172;53.022;7.012;2023-07-31T05:10:57;15.60;99.90
54260;DHT22;40172;53.022;7.012;2023-07-31T05:13:22;15.60;99.90
54260;DHT22;40172;53.022;7.012;2023-07-31T05:15:48;15.60;99.90
54260;DHT22;40172;53.022;7.012;2023-07-31T05:18:15;15.70;99.90
54260;DHT22;40172;53.022;7.012;2023-07-31T05:20:40;15.70;99.90
54260;DHT22;40172;53.022;7.012;2023-07-31T05:23:06;15.70;99.90
54260;DHT22;40172;53.022;7.012;2023-07-31T05:25:32;15.70;99.90
54260;DHT22;40172;53.022;7.012;2023-07-31T05:27:57;15.70;99.90
54260;DHT22;40172;53.022;7.012;2023-07-31T05:30:23;15.70;99.90
54260;DHT22;40172;53.022;7.012;2023-07-31T05:32:50;15.70;99.90
54260;DHT22;40172;53.022;7.012;2023-07-31T05:35:15;15.80;99.90
54260;DHT22;40172;53.022;7.012;2023-07-31T05:37:41;15.70;99.90
54260;DHT22;40172;53.022;7.012;2023-07-31T05:40:07;15.80;99.90
54260;DHT22;40172;53.022;7.012;2023-07-31T05:42:32;15.80;99.90
54260;DHT22;40172;53.022;7.012;2023-07-31T05:44:58;15.80;99.90
54260;DHT22;40172;53.022;7.012;2023-07-31T05:47:23;15.80;99.90
54260;DHT22;40172;53.022;7.012;2023-07-31T05:49:49;15.80;99.90
54260;DHT22;40172;53.022;7.012;2023-07-31T05:52:18;15.80;99.90
54260;DHT22;40172;53.022;7.012;2023-07-31T05:54:43;15.80;99.90
54260;DHT22;40172;53.022;7.012;2023-07-31T05:57:09;15.80;99.90
54260;DHT22;40172;53.022;7.012;2023-07-31T05:59:35;15.80;99.90
54260;DHT22;40172;53.022;7.012;2023-07-31T06:02:00;16.70;99.90
54260;DHT22;40172;53.022;7.012;2023-07-31T06:04:26;15.80;99.90
54260;DHT22;40172;53.022;7.012;2023-07-31T06:06:52;15.90;99.90
54260;DHT22;40172;53.022;7.012;2023-07-31T06:09:17;15.90;99.90
54260;DHT22;40172;53.022;7.012;2023-07-31T06:11:43;16.00;99.90
54260;DHT22;40172;53.022;7.012;2023-07-31T06:14:08;16.00;99.90
54260;DHT22;40172;53.022;7.012;2023-07-31T06:16:34;16.00;99.90
54260;DHT22;40172;53.022;7.012;2023-07-31T06:19:01;16.00;99.90
54260;DHT22;40172;53.022;7.012;2023-07-31T06:21:27;16.10;99.90
54260;DHT22;40172;53.022;7.012;2023-07-31T06:23:52;16.20;99.90
54260;DHT22;40172;53.022;7.012;2023-07-31T06:26:18;16.10;99.90
54260;DHT22;40172;53.022;7.012;2023-07-31T06:28:43;16.20;99.90
54260;DHT22;40172;53.022;7.012;2023-07-31T06:31:09;16.20;99.90
54260;DHT22;40172;53.022;7.012;2023-07-31T06:33:35;16.20;99.90
54260;DHT22;40172;53.022;7.012;2023-07-31T06:36:00;16.40;99.90
54260;DHT22;40172;53.022;7.012;2023-07-31T06:38:27;16.40;99.90
54260;DHT22;40172;53.022;7.012;2023-07-31T06:40:53;16.40;99.90
54260;DHT22;40172;53.022;7.012;2023-07-31T06:43:18;16.50;99.90
54260;DHT22;40172;53.022;7.012;2023-07-31T06:45:44;16.50;99.90
54260;DHT22;40172;53.022;7.012;2023-07-31T06:48:11;16.60;99.90
54260;DHT22;40172;53.022;7.012;2023-07-31T06:50:36;16.60;99.90
54260;DHT22;40172;53.022;7.012;2023-07-31T06:53:02;16.70;99.90
54260;DHT22;40172;53.022;7.012;2023-07-31T06:55:28;16.70;99.90
54260;DHT22;40172;53.022;7.012;2023-07-31T06:57:54;16.60;99.90
54260;DHT22;40172;53.022;7.012;2023-07-31T07:00:21;16.70;99.90
54260;DHT22;40172;53.022;7.012;2023-07-31T07:02:47;16.70;99.90
54260;DHT22;40172;53.022;7.012;2023-07-31T07:05:13;16.70;99.90
54260;DHT22;40172;53.022;7.012;2023-07-31T07:07:39;16.80;99.90
54260;DHT22;40172;53.022;7.012;2023-07-31T07:10:05;16.80;99.90
54260;DHT22;40172;53.022;7.012;2023-07-31T07:12:31;16.90;99.90
54260;DHT22;40172;53.022;7.012;2023-07-31T07:14:57;17.00;99.90
54260;DHT22;40172;53.022;7.012;2023-07-31T07:17:24;17.10;99.90
54260;DHT22;40172;53.022;7.012;2023-07-31T07:19:49;17.10;99.90
54260;DHT22;40172;53.022;7.012;2023-07-31T07:22:15;17.10;99.90
54260;DHT22;40172;53.022;7.012;2023-07-31T07:24:41;17.10;99.90
54260;DHT22;40172;53.022;7.012;2023-07-31T07:27:07;17.10;99.90
54260;DHT22;40172;53.022;7.012;2023-07-31T07:29:34;17.00;99.90
54260;DHT22;40172;53.022;7.012;2023-07-31T07:32:00;17.00;99.90
54260;DHT22;40172;53.022;7.012;2023-07-31T07:34:27;17.00;99.90
54260;DHT22;40172;53.022;7.012;2023-07-31T07:36:53;16.90;99.90
54260;DHT22;40172;53.022;7.012;2023-07-31T07:39:18;16.90;99.90
54260;DHT22;40172;53.022;7.012;2023-07-31T07:41:44;16.90;99.90
54260;DHT22;40172;53.022;7.012;2023-07-31T07:44:10;17.00;99.90
54260;DHT22;40172;53.022;7.012;2023-07-31T07:46:35;16.90;99.90
54260;DHT22;40172;53.022;7.012;2023-07-31T07:49:01;16.90;99.90
54260;DHT22;40172;53.022;7.012;2023-07-31T07:51:26;17.00;99.90
54260;DHT22;40172;53.022;7.012;2023-07-31T07:53:52;17.10;99.90
54260;DHT22;40172;53.022;7.012;2023-07-31T07:56:18;17.30;99.90
54260;DHT22;40172;53.022;7.012;2023-07-31T07:58:43;17.40;99.90
54260;DHT22;40172;53.022;7.012;2023-07-31T08:01:09;17.40;99.90
54260;DHT22;40172;53.022;7.012;2023-07-31T08:03:34;17.40;99.90
54260;DHT22;40172;53.022;7.012;2023-07-31T08:06:01;17.30;99.90
54260;DHT22;40172;53.022;7.012;2023-07-31T08:08:27;17.30;99.90
54260;DHT22;40172;53.022;7.012;2023-07-31T08:10:53;17.20;99.90
54260;DHT22;40172;53.022;7.012;2023-07-31T08:13:19;17.10;99.90
54260;DHT22;40172;53.022;7.012;2023-07-31T08:15:44;17.10;99.90
54260;DHT22;40172;53.022;7.012;2023-07-31T08:18:10;17.00;99.90
54260;DHT22;40172;53.022;7.012;2023-07-31T08:20:39;17.70;99.90
54260;DHT22;40172;53.022;7.012;2023-07-31T08:23:05;17.00;99.90
54260;DHT22;40172;53.022;7.012;2023-07-31T08:25:30;17.00;99.90
54260;DHT22;40172;53.022;7.012;2023-07-31T08:27:56;17.00;99.90
54260;DHT22;40172;53.022;7.012;2023-07-31T08:30:22;16.90;99.90
54260;DHT22;40172;53.022;7.012;2023-07-31T08:32:47;16.90;99.90
54260;DHT22;40172;53.022;7.012;2023-07-31T08:35:13;16.90;99.90
54260;DHT22;40172;53.022;7.012;2023-07-31T08:37:38;16.90;99.90
54260;DHT22;40172;53.022;7.012;2023-07-31T08:40:05;17.00;99.90
54260;DHT22;40172;53.022;7.012;2023-07-31T08:42:31;17.00;99.90
54260;DHT22;40172;53.022;7.012;2023-07-31T08:44:58;17.00;99.90
54260;DHT22;40172;53.022;7.012;2023-07-31T08:47:26;17.00;99.90
54260;DHT22;40172;53.022;7.012;2023-07-31T08:49:52;17.10;99.90
54260;DHT22;40172;53.022;7.012;2023-07-31T08:52:19;17.20;99.90
54260;DHT22;40172;53.022;7.012;2023-07-31T08:54:45;17.40;99.90
54260;DHT22;40172;53.022;7.012;2023-07-31T08:57:11;17.30;99.90
54260;DHT22;40172;53.022;7.012;2023-07-31T08:59:38;17.40;99.90
54260;DHT22;40172;53.022;7.012;2023-07-31T09:02:08;17.40;99.90
54260;DHT22;40172;53.022;7.012;2023-07-31T09:04:34;17.40;99.90
54260;DHT22;40172;53.022;7.012;2023-07-31T09:07:02;17.50;99.90
54260;DHT22;40172;53.022;7.012;2023-07-31T09:09:30;17.80;99.90
54260;DHT22;40172;53.022;7.012;2023-07-31T09:11:58;17.60;99.90
54260;DHT22;40172;53.022;7.012;2023-07-31T09:14:25;17.70;99.90
54260;DHT22;40172;53.022;7.012;2023-07-31T09:16:55;17.80;99.90
54260;DHT22;40172;53.022;7.012;2023-07-31T09:19:48;17.90;99.90
54260;DHT22;40172;53.022;7.012;2023-07-31T09:22:13;18.00;99.90
54260;DHT22;40172;53.022;7.012;2023-07-31T09:24:39;18.20;99.90
54260;DHT22;40172;53.022;7.012;2023-07-31T09:27:06;18.20;99.90
54260;DHT22;40172;53.022;7.012;2023-07-31T09:29:31;18.40;99.90
54260;DHT22;40172;53.022;7.012;2023-07-31T09:31:57;19.10;99.90
54260;DHT22;40172;53.022;7.012;2023-07-31T09:34:37;18.30;99.90
54260;DHT22;40172;53.022;7.012;2023-07-31T09:37:06;18.40;99.90
54260;DHT22;40172;53.022;7.012;2023-07-31T09:39:31;18.30;99.90
54260;DHT22;40172;53.022;7.012;2023-07-31T09:41:57;18.30;99.90
54260;DHT22;40172;53.022;7.012;2023-07-31T09:44:40;18.30;99.90
54260;DHT22;40172;53.022;7.012;2023-07-31T09:47:06;18.30;99.90
54260;DHT22;40172;53.022;7.012;2023-07-31T09:49:32;18.20;99.90
54260;DHT22;40172;53.022;7.012;2023-07-31T09:51:57;18.20;99.90
54260;DHT22;40172;53.022;7.012;2023-07-31T09:54:23;18.20;99.90
54260;DHT22;40172;53.022;7.012;2023-07-31T09:56:49;18.10;99.90
54260;DHT22;40172;53.022;7.012;2023-07-31T09:59:16;18.10;99.90
54260;DHT22;40172;53.022;7.012;2023-07-31T10:01:43;18.10;99.90
54260;DHT22;40172;53.022;7.012;2023-07-31T10:04:10;18.10;99.90
54260;DHT22;40172;53.022;7.012;2023-07-31T10:06:37;18.20;99.90
54260;DHT22;40172;53.022;7.012;2023-07-31T10:09:05;18.20;99.90
54260;DHT22;40172;53.022;7.012;2023-07-31T10:11:41;18.30;99.90
54260;DHT22;40172;53.022;7.012;2023-07-31T10:14:09;18.30;99.90
54260;DHT22;40172;53.022;7.012;2023-07-31T10:16:38;18.40;99.90
54260;DHT22;40172;53.022;7.012;2023-07-31T10:19:05;18.50;99.90
54260;DHT22;40172;53.022;7.012;2023-07-31T10:21:31;18.40;99.90
54260;DHT22;40172;53.022;7.012;2023-07-31T10:24:03;18.40;99.90
54260;DHT22;40172;53.022;7.012;2023-07-31T10:26:29;18.40;99.90
54260;DHT22;40172;53.022;7.012;2023-07-31T10:28:56;18.40;99.90
54260;DHT22;40172;53.022;7.012;2023-07-31T10:31:24;18.40;99.90
54260;DHT22;40172;53.022;7.012;2023-07-31T10:33:51;18.40;99.90
54260;DHT22;40172;53.022;7.012;2023-07-31T10:36:18;18.40;99.90
54260;DHT22;40172;53.022;7.012;2023-07-31T10:38:45;18.50;99.90
54260;DHT22;40172;53.022;7.012;2023-07-31T10:41:11;18.60;99.90
54260;DHT22;40172;53.022;7.012;2023-07-31T10:43:39;18.70;99.90
54260;DHT22;40172;53.022;7.012;2023-07-31T10:46:11;18.70;99.90
54260;DHT22;40172;53.022;7.012;2023-07-31T10:48:38;18.80;99.90
54260;DHT22;40172;53.022;7.012;2023-07-31T10:51:08;19.00;99.90
54260;DHT22;40172;53.022;7.012;2023-07-31T10:53:35;19.10;99.90
54260;DHT22;40172;53.022;7.012;2023-07-31T10:56:06;19.10;99.90
54260;DHT22;40172;53.022;7.012;2023-07-31T10:58:33;19.20;99.90
54260;DHT22;40172;53.022;7.012;2023-07-31T11:01:01;19.20;99.90
54260;DHT22;40172;53.022;7.012;2023-07-31T11:06:10;19.20;99.90
54260;DHT22;40172;53.022;7.012;2023-07-31T11:08:43;19.20;99.90
54260;DHT22;40172;53.022;7.012;2023-07-31T11:11:10;19.20;99.90
54260;DHT22;40172;53.022;7.012;2023-07-31T11:13:47;19.20;99.90
54260;DHT22;40172;53.022;7.012;2023-07-31T11:16:17;19.10;99.90
54260;DHT22;40172;53.022;7.012;2023-07-31T11:18:44;19.00;99.90
54260;DHT22;40172;53.022;7.012;2023-07-31T11:23:40;18.90;99.90
54260;DHT22;40172;53.022;7.012;2023-07-31T11:26:06;18.90;99.90
54260;DHT22;40172;53.022;7.012;2023-07-31T11:28:33;18.90;99.90
54260;DHT22;40172;53.022;7.012;2023-07-31T11:31:00;19.10;99.90
54260;DHT22;40172;53.022;7.012;2023-07-31T11:33:26;19.00;99.90
54260;DHT22;40172;53.022;7.012;2023-07-31T11:35:52;19.00;99.90
54260;DHT22;40172;53.022;7.012;2023-07-31T11:38:29;19.10;99.90
54260;DHT22;40172;53.022;7.012;2023-07-31T11:40:57;19.20;99.90
54260;DHT22;40172;53.022;7.012;2023-07-31T11:43:23;19.20;99.90
54260;DHT22;40172;53.022;7.012;2023-07-31T11:45:50;19.40;99.90
54260;DHT22;40172;53.022;7.012;2023-07-31T11:48:27;19.40;99.90
54260;DHT22;40172;53.022;7.012;2023-07-31T11:51:13;19.50;99.90
54260;DHT22;40172;53.022;7.012;2023-07-31T11:53:45;19.60;99.90
54260;DHT22;40172;53.022;7.012;2023-07-31T11:56:23;19.70;99.90
54260;DHT22;40172;53.022;7.012;2023-07-31T11:58:53;19.90;99.90
54260;DHT22;40172;53.022;7.012;2023-07-31T12:01:21;19.90;99.90
54260;DHT22;40172;53.022;7.012;2023-07-31T12:03:47;19.90;99.90
54260;DHT22;40172;53.022;7.012;2023-07-31T12:06:13;19.90;99.90
54260;DHT22;40172;53.022;7.012;2023-07-31T12:08:38;19.80;99.90
54260;DHT22;40172;53.022;7.012;2023-07-31T12:11:05;19.70;99.90
54260;DHT22;40172;53.022;7.012;2023-07-31T12:13:33;19.70;99.90
54260;DHT22;40172;53.022;7.012;2023-07-31T12:16:00;19.60;99.90
54260;DHT22;40172;53.022;7.012;2023-07-31T12:18:29;19.50;99.90
54260;DHT22;40172;53.022;7.012;2023-07-31T12:21:00;19.20;99.90
54260;DHT22;40172;53.022;7.012;2023-07-31T12:23:31;19.00;99.90
54260;DHT22;40172;53.022;7.012;2023-07-31T12:26:20;18.80;99.90
54260;DHT22;40172;53.022;7.012;2023-07-31T12:28:47;18.80;99.90
54260;DHT22;40172;53.022;7.012;2023-07-31T12:31:15;18.90;99.90
54260;DHT22;40172;53.022;7.012;2023-07-31T12:33:42;18.80;99.90
54260;DHT22;40172;53.022;7.012;2023-07-31T12:36:17;18.80;99.90
54260;DHT22;40172;53.022;7.012;2023-07-31T12:38:43;18.80;99.90
54260;DHT22;40172;53.022;7.012;2023-07-31T12:41:08;18.90;99.90
54260;DHT22;40172;53.022;7.012;2023-07-31T12:43:39;18.90;99.90
54260;DHT22;40172;53.022;7.012;2023-07-31T12:46:05;19.00;99.90
54260;DHT22;40172;53.022;7.012;2023-07-31T12:48:31;19.00;99.90
54260;DHT22;40172;53.022;7.012;2023-07-31T12:50:57;18.80;99.90
54260;DHT22;40172;53.022;7.012;2023-07-31T12:53:23;18.70;99.90
54260;DHT22;40172;53.022;7.012;2023-07-31T12:55:48;18.60;99.90
54260;DHT22;40172;53.022;7.012;2023-07-31T12:58:14;18.50;99.90
54260;DHT22;40172;53.022;7.012;2023-07-31T13:00:39;18.50;99.90
54260;DHT22;40172;53.022;7.012;2023-07-31T13:03:05;18.50;99.90
54260;DHT22;40172;53.022;7.012;2023-07-31T13:05:31;18.60;99.90
54260;DHT22;40172;53.022;7.012;2023-07-31T13:07:56;18.80;99.90
54260;DHT22;40172;53.022;7.012;2023-07-31T13:10:23;18.90;99.90
54260;DHT22;40172;53.022;7.012;2023-07-31T13:12:49;18.90;99.90
54260;DHT22;40172;53.022;7.012;2023-07-31T13:15:14;19.10;99.90
54260;DHT22;40172;53.022;7.012;2023-07-31T13:17:40;19.10;99.90
54260;DHT22;40172;53.022;7.012;2023-07-31T13:20:06;19.20;99.90
54260;DHT22;40172;53.022;7.012;2023-07-31T13:22:32;19.20;99.90
54260;DHT22;40172;53.022;7.012;2023-07-31T13:24:58;19.20;99.90
54260;DHT22;40172;53.022;7.012;2023-07-31T13:27:24;19.20;99.90
54260;DHT22;40172;53.022;7.012;2023-07-31T13:29:50;19.20;99.90
54260;DHT22;40172;53.022;7.012;2023-07-31T13:32:16;19.10;99.90
54260;DHT22;40172;53.022;7.012;2023-07-31T13:34:42;19.20;99.90
54260;DHT22;40172;53.022;7.012;2023-07-31T13:37:08;19.20;99.90
54260;DHT22;40172;53.022;7.012;2023-07-31T13:39:33;19.20;99.90
54260;DHT22;40172;53.022;7.012;2023-07-31T13:41:59;19.20;99.90
54260;DHT22;40172;53.022;7.012;2023-07-31T13:44:25;19.20;99.90
54260;DHT22;40172;53.022;7.012;2023-07-31T13:46:51;19.30;99.90
54260;DHT22;40172;53.022;7.012;2023-07-31T13:49:17;19.30;99.90
54260;DHT22;40172;53.022;7.012;2023-07-31T13:51:43;19.40;99.90
54260;DHT22;40172;53.022;7.012;2023-07-31T13:54:08;19.50;99.90
54260;DHT22;40172;53.022;7.012;2023-07-31T13:56:34;19.50;99.90
54260;DHT22;40172;53.022;7.012;2023-07-31T13:58:59;19.70;99.90
54260;DHT22;40172;53.022;7.012;2023-07-31T14:01:26;19.80;99.90
54260;DHT22;40172;53.022;7.012;2023-07-31T14:03:52;19.90;99.90
54260;DHT22;40172;53.022;7.012;2023-07-31T14:06:17;20.00;99.90
54260;DHT22;40172;53.022;7.012;2023-07-31T14:08:43;20.30;99.90
54260;DHT22;40172;53.022;7.012;2023-07-31T14:11:09;20.10;99.90
54260;DHT22;40172;53.022;7.012;2023-07-31T14:13:34;20.20;99.90
54260;DHT22;40172;53.022;7.012;2023-07-31T14:16:00;20.30;99.90
54260;DHT22;40172;53.022;7.012;2023-07-31T14:18:25;20.90;99.90
54260;DHT22;40172;53.022;7.012;2023-07-31T14:20:51;20.40;99.90
54260;DHT22;40172;53.022;7.012;2023-07-31T14:23:17;20.50;99.90
54260;DHT22;40172;53.022;7.012;2023-07-31T14:25:45;20.50;99.90
54260;DHT22;40172;53.022;7.012;2023-07-31T14:28:11;20.60;99.90
54260;DHT22;40172;53.022;7.012;2023-07-31T14:30:36;20.60;99.90
54260;DHT22;40172;53.022;7.012;2023-07-31T14:33:02;20.60;99.90
54260;DHT22;40172;53.022;7.012;2023-07-31T14:35:28;20.70;99.90
54260;DHT22;40172;53.022;7.012;2023-07-31T14:37:54;20.70;99.90
54260;DHT22;40172;53.022;7.012;2023-07-31T14:40:19;20.70;99.90
54260;DHT22;40172;53.022;7.012;2023-07-31T14:42:45;20.70;99.90
54260;DHT22;40172;53.022;7.012;2023-07-31T14:45:11;20.60;99.90
54260;DHT22;40172;53.022;7.012;2023-07-31T14:47:36;20.60;99.90
54260;DHT22;40172;53.022;7.012;2023-07-31T14:50:02;20.60;99.90
54260;DHT22;40172;53.022;7.012;2023-07-31T14:52:28;20.70;99.90
54260;DHT22;40172;53.022;7.012;2023-07-31T14:54:54;20.60;99.90
54260;DHT22;40172;53.022;7.012;2023-07-31T14:57:20;20.60;99.90
54260;DHT22;40172;53.022;7.012;2023-07-31T14:59:47;20.60;99.90
54260;DHT22;40172;53.022;7.012;2023-07-31T15:02:13;20.60;99.90
54260;DHT22;40172;53.022;7.012;2023-07-31T15:04:39;20.50;99.90
54260;DHT22;40172;53.022;7.012;2023-07-31T15:07:05;20.40;99.90
54260;DHT22;40172;53.022;7.012;2023-07-31T15:09:30;20.40;99.90
54260;DHT22;40172;53.022;7.012;2023-07-31T15:11:56;20.30;99.90
54260;DHT22;40172;53.022;7.012;2023-07-31T15:14:23;20.30;99.90
54260;DHT22;40172;53.022;7.012;2023-07-31T15:16:49;20.20;99.90
54260;DHT22;40172;53.022;7.012;2023-07-31T15:19:15;20.20;99.90
54260;DHT22;40172;53.022;7.012;2023-07-31T15:21:41;20.20;99.90
54260;DHT22;40172;53.022;7.012;2023-07-31T15:24:06;20.20;99.90
54260;DHT22;40172;53.022;7.012;2023-07-31T15:26:32;20.20;99.90
54260;DHT22;40172;53.022;7.012;2023-07-31T15:29:03;20.20;99.90
54260;DHT22;40172;53.022;7.012;2023-07-31T15:31:31;20.10;99.90
54260;DHT22;40172;53.022;7.012;2023-07-31T15:33:56;20.70;99.90